SBJU/JDO METAR and TAF weather

Enter ICAO airport designator
Station Type Date Time Source
SBJU METAR 2019/04/22 18:00 UTC NOAA

SBJU 221800Z 15004KT CAVOK 32/18 Q1013


Station Type Date Time Source
SBJU Decoded METAR 2019/04/22 18:00 UTC NOAA

Station name not available
Apr 22, 2019 - 02:00 PM EDT / 2019.04.22 1800 UTC
Wind: from the SSE (150 degrees) at 5 MPH (4 KT):0
Visibility: greater than 7 mile(s):0
Temperature: 89 F (32 C)
Dew Point: 64 F (18 C)
Relative Humidity: 43%
Pressure (altimeter): 29.91 in. Hg (1013 hPa)
ob: SBJU 221800Z 15004KT CAVOK 32/18 Q1013
cycle: 18

Station Type Date Time Source
SBJU TAF 2011/11/01 00:05 UTC NOAA

TAF SBJU 012200Z 0200/0212 00000KT 9999 SCT020 TX28/0200Z TN24/0207Z
BECMG 0210/0212 06005KT
RMK PCE

Example: see airport list